sensor_id;sensor_type;location;lat;lon;timestamp;P1;durP1;ratioP1;P2;durP2;ratioP2
47778;SDS011;33538;48.432;11.350;2022-12-07T00:01:48;8.10;;;4.43;;
47778;SDS011;33538;48.432;11.350;2022-12-07T00:04:16;9.63;;;4.50;;
47778;SDS011;33538;48.432;11.350;2022-12-07T00:06:44;9.25;;;4.20;;
47778;SDS011;33538;48.432;11.350;2022-12-07T00:09:14;7.43;;;3.97;;
47778;SDS011;33538;48.432;11.350;2022-12-07T00:11:43;11.48;;;4.50;;
47778;SDS011;33538;48.432;11.350;2022-12-07T00:14:12;9.93;;;4.53;;
47778;SDS011;33538;48.432;11.350;2022-12-07T00:16:40;8.50;;;4.20;;
47778;SDS011;33538;48.432;11.350;2022-12-07T00:19:08;9.32;;;4.13;;
47778;SDS011;33538;48.432;11.350;2022-12-07T00:21:36;9.80;;;4.30;;
47778;SDS011;33538;48.432;11.350;2022-12-07T00:24:04;12.65;;;4.05;;
47778;SDS011;33538;48.432;11.350;2022-12-07T00:26:33;9.07;;;4.32;;
47778;SDS011;33538;48.432;11.350;2022-12-07T00:29:02;9.00;;;4.47;;
47778;SDS011;33538;48.432;11.350;2022-12-07T00:31:31;10.60;;;4.47;;
47778;SDS011;33538;48.432;11.350;2022-12-07T00:33:59;9.55;;;3.88;;
47778;SDS011;33538;48.432;11.350;2022-12-07T00:36:28;10.18;;;4.22;;
47778;SDS011;33538;48.432;11.350;2022-12-07T00:38:54;9.32;;;4.70;;
47778;SDS011;33538;48.432;11.350;2022-12-07T00:41:24;7.28;;;3.95;;
47778;SDS011;33538;48.432;11.350;2022-12-07T00:43:54;6.15;;;3.63;;
47778;SDS011;33538;48.432;11.350;2022-12-07T00:46:21;8.13;;;3.90;;
47778;SDS011;33538;48.432;11.350;2022-12-07T00:48:49;9.90;;;4.50;;
47778;SDS011;33538;48.432;11.350;2022-12-07T00:51:17;6.20;;;3.92;;
47778;SDS011;33538;48.432;11.350;2022-12-07T00:53:45;11.73;;;4.35;;
47778;SDS011;33538;48.432;11.350;2022-12-07T00:56:12;9.88;;;4.70;;
47778;SDS011;33538;48.432;11.350;2022-12-07T00:58:40;8.02;;;4.10;;
47778;SDS011;33538;48.432;11.350;2022-12-07T01:01:08;10.52;;;4.45;;
47778;SDS011;33538;48.432;11.350;2022-12-07T01:03:37;11.10;;;4.13;;
47778;SDS011;33538;48.432;11.350;2022-12-07T01:06:05;11.48;;;4.15;;
47778;SDS011;33538;48.432;11.350;2022-12-07T01:08:32;8.98;;;4.22;;
47778;SDS011;33538;48.432;11.350;2022-12-07T01:11:00;10.18;;;4.70;;
47778;SDS011;33538;48.432;11.350;2022-12-07T01:13:29;9.18;;;4.70;;
47778;SDS011;33538;48.432;11.350;2022-12-07T01:15:57;8.32;;;4.55;;
47778;SDS011;33538;48.432;11.350;2022-12-07T01:18:27;9.48;;;4.15;;
47778;SDS011;33538;48.432;11.350;2022-12-07T01:20:59;7.93;;;3.88;;
47778;SDS011;33538;48.432;11.350;2022-12-07T01:23:26;10.35;;;4.53;;
47778;SDS011;33538;48.432;11.350;2022-12-07T01:25:54;9.85;;;4.57;;
47778;SDS011;33538;48.432;11.350;2022-12-07T01:28:21;8.43;;;4.25;;
47778;SDS011;33538;48.432;11.350;2022-12-07T01:30:54;8.57;;;4.95;;
47778;SDS011;33538;48.432;11.350;2022-12-07T01:33:22;9.13;;;4.47;;
47778;SDS011;33538;48.432;11.350;2022-12-07T01:35:50;7.78;;;4.28;;
47778;SDS011;33538;48.432;11.350;2022-12-07T01:38:17;12.00;;;4.75;;
47778;SDS011;33538;48.432;11.350;2022-12-07T01:40:44;9.45;;;4.30;;
47778;SDS011;33538;48.432;11.350;2022-12-07T01:43:14;7.70;;;4.20;;
47778;SDS011;33538;48.432;11.350;2022-12-07T01:45:43;12.40;;;4.90;;
47778;SDS011;33538;48.432;11.350;2022-12-07T01:48:10;7.57;;;3.90;;
47778;SDS011;33538;48.432;11.350;2022-12-07T01:50:41;9.55;;;4.32;;
47778;SDS011;33538;48.432;11.350;2022-12-07T01:53:11;9.10;;;4.38;;
47778;SDS011;33538;48.432;11.350;2022-12-07T01:55:40;9.80;;;4.22;;
47778;SDS011;33538;48.432;11.350;2022-12-07T01:58:10;9.73;;;4.63;;
47778;SDS011;33538;48.432;11.350;2022-12-07T02:00:38;10.07;;;4.50;;
47778;SDS011;33538;48.432;11.350;2022-12-07T02:03:06;7.47;;;3.85;;
47778;SDS011;33538;48.432;11.350;2022-12-07T02:05:37;9.45;;;4.28;;
47778;SDS011;33538;48.432;11.350;2022-12-07T02:08:06;8.88;;;4.20;;
47778;SDS011;33538;48.432;11.350;2022-12-07T02:10:35;8.85;;;4.40;;
47778;SDS011;33538;48.432;11.350;2022-12-07T02:13:02;11.30;;;5.03;;
47778;SDS011;33538;48.432;11.350;2022-12-07T02:15:37;8.50;;;3.78;;
47778;SDS011;33538;48.432;11.350;2022-12-07T02:18:28;9.45;;;4.55;;
47778;SDS011;33538;48.432;11.350;2022-12-07T02:21:07;9.15;;;4.80;;
47778;SDS011;33538;48.432;11.350;2022-12-07T02:23:41;11.18;;;5.03;;
47778;SDS011;33538;48.432;11.350;2022-12-07T02:26:33;8.93;;;4.43;;
47778;SDS011;33538;48.432;11.350;2022-12-07T02:29:34;10.00;;;4.60;;
47778;SDS011;33538;48.432;11.350;2022-12-07T02:32:06;8.98;;;4.15;;
47778;SDS011;33538;48.432;11.350;2022-12-07T02:34:40;8.63;;;3.67;;
47778;SDS011;33538;48.432;11.350;2022-12-07T02:37:14;10.00;;;4.78;;
47778;SDS011;33538;48.432;11.350;2022-12-07T02:39:53;9.45;;;4.40;;
47778;SDS011;33538;48.432;11.350;2022-12-07T02:42:25;9.15;;;3.97;;
47778;SDS011;33538;48.432;11.350;2022-12-07T02:47:27;11.45;;;4.30;;
47778;SDS011;33538;48.432;11.350;2022-12-07T02:49:57;8.85;;;4.78;;
47778;SDS011;33538;48.432;11.350;2022-12-07T02:52:24;9.93;;;4.47;;
47778;SDS011;33538;48.432;11.350;2022-12-07T02:54:51;10.18;;;4.78;;
47778;SDS011;33538;48.432;11.350;2022-12-07T02:57:26;8.88;;;4.82;;
47778;SDS011;33538;48.432;11.350;2022-12-07T03:00:04;10.18;;;4.70;;
47778;SDS011;33538;48.432;11.350;2022-12-07T03:02:35;9.30;;;4.20;;
47778;SDS011;33538;48.432;11.350;2022-12-07T03:05:11;9.95;;;5.35;;
47778;SDS011;33538;48.432;11.350;2022-12-07T03:07:48;10.18;;;4.93;;
47778;SDS011;33538;48.432;11.350;2022-12-07T03:10:22;7.50;;;3.83;;
47778;SDS011;33538;48.432;11.350;2022-12-07T03:13:00;10.02;;;4.70;;
47778;SDS011;33538;48.432;11.350;2022-12-07T03:15:33;8.43;;;4.32;;
47778;SDS011;33538;48.432;11.350;2022-12-07T03:18:05;11.40;;;5.35;;
47778;SDS011;33538;48.432;11.350;2022-12-07T03:20:35;8.20;;;4.32;;
47778;SDS011;33538;48.432;11.350;2022-12-07T03:23:05;10.60;;;5.07;;
47778;SDS011;33538;48.432;11.350;2022-12-07T03:25:34;7.35;;;4.00;;
47778;SDS011;33538;48.432;11.350;2022-12-07T03:28:04;9.07;;;4.75;;
47778;SDS011;33538;48.432;11.350;2022-12-07T03:30:35;10.98;;;4.50;;
47778;SDS011;33538;48.432;11.350;2022-12-07T03:33:06;9.57;;;4.97;;
47778;SDS011;33538;48.432;11.350;2022-12-07T03:35:37;12.50;;;5.45;;
47778;SDS011;33538;48.432;11.350;2022-12-07T03:38:11;9.98;;;4.95;;
47778;SDS011;33538;48.432;11.350;2022-12-07T03:40:44;9.30;;;4.68;;
47778;SDS011;33538;48.432;11.350;2022-12-07T03:43:16;8.10;;;4.53;;
47778;SDS011;33538;48.432;11.350;2022-12-07T03:45:49;9.90;;;4.90;;
47778;SDS011;33538;48.432;11.350;2022-12-07T03:48:26;10.60;;;5.38;;
47778;SDS011;33538;48.432;11.350;2022-12-07T03:51:00;11.85;;;5.22;;
47778;SDS011;33538;48.432;11.350;2022-12-07T03:53:34;10.65;;;5.35;;
47778;SDS011;33538;48.432;11.350;2022-12-07T03:56:05;7.85;;;4.22;;
47778;SDS011;33538;48.432;11.350;2022-12-07T03:58:34;10.00;;;5.03;;
47778;SDS011;33538;48.432;11.350;2022-12-07T04:01:03;10.75;;;4.80;;
47778;SDS011;33538;48.432;11.350;2022-12-07T04:03:30;8.60;;;4.68;;
47778;SDS011;33538;48.432;11.350;2022-12-07T04:05:56;11.90;;;5.35;;
47778;SDS011;33538;48.432;11.350;2022-12-07T04:08:24;9.88;;;5.25;;
47778;SDS011;33538;48.432;11.350;2022-12-07T04:10:51;10.98;;;4.80;;
47778;SDS011;33538;48.432;11.350;2022-12-07T04:13:17;10.38;;;4.78;;
47778;SDS011;33538;48.432;11.350;2022-12-07T04:15:44;10.18;;;4.55;;
47778;SDS011;33538;48.432;11.350;2022-12-07T04:18:12;7.20;;;3.80;;
47778;SDS011;33538;48.432;11.350;2022-12-07T04:20:39;10.10;;;4.65;;
47778;SDS011;33538;48.432;11.350;2022-12-07T04:23:06;11.55;;;5.50;;
47778;SDS011;33538;48.432;11.350;2022-12-07T04:25:33;11.50;;;4.97;;
47778;SDS011;33538;48.432;11.350;2022-12-07T04:27:59;10.63;;;4.35;;
47778;SDS011;33538;48.432;11.350;2022-12-07T04:30:26;9.60;;;4.55;;
47778;SDS011;33538;48.432;11.350;2022-12-07T04:32:53;11.10;;;5.93;;
47778;SDS011;33538;48.432;11.350;2022-12-07T04:35:21;8.90;;;4.70;;
47778;SDS011;33538;48.432;11.350;2022-12-07T04:37:48;10.35;;;4.95;;
47778;SDS011;33538;48.432;11.350;2022-12-07T04:40:14;10.07;;;5.30;;
47778;SDS011;33538;48.432;11.350;2022-12-07T04:42:41;8.82;;;4.45;;
47778;SDS011;33538;48.432;11.350;2022-12-07T04:45:08;8.77;;;4.82;;
47778;SDS011;33538;48.432;11.350;2022-12-07T04:47:35;10.10;;;5.05;;
47778;SDS011;33538;48.432;11.350;2022-12-07T04:50:02;10.65;;;5.60;;
47778;SDS011;33538;48.432;11.350;2022-12-07T04:52:32;10.77;;;5.00;;
47778;SDS011;33538;48.432;11.350;2022-12-07T04:54:59;11.30;;;5.07;;
47778;SDS011;33538;48.432;11.350;2022-12-07T04:57:25;12.23;;;5.65;;
47778;SDS011;33538;48.432;11.350;2022-12-07T04:59:52;14.13;;;5.65;;
47778;SDS011;33538;48.432;11.350;2022-12-07T05:02:19;11.55;;;5.82;;
47778;SDS011;33538;48.432;11.350;2022-12-07T05:04:46;12.25;;;6.25;;
47778;SDS011;33538;48.432;11.350;2022-12-07T05:07:12;11.45;;;5.60;;
47778;SDS011;33538;48.432;11.350;2022-12-07T05:09:40;11.88;;;5.43;;
47778;SDS011;33538;48.432;11.350;2022-12-07T05:12:07;11.50;;;5.95;;
47778;SDS011;33538;48.432;11.350;2022-12-07T05:14:34;12.90;;;6.43;;
47778;SDS011;33538;48.432;11.350;2022-12-07T05:17:01;12.38;;;5.38;;
47778;SDS011;33538;48.432;11.350;2022-12-07T05:19:28;13.27;;;5.93;;
47778;SDS011;33538;48.432;11.350;2022-12-07T05:21:54;11.57;;;5.75;;
47778;SDS011;33538;48.432;11.350;2022-12-07T05:24:21;12.93;;;5.90;;
47778;SDS011;33538;48.432;11.350;2022-12-07T05:26:49;12.40;;;5.45;;
47778;SDS011;33538;48.432;11.350;2022-12-07T05:29:16;10.65;;;5.45;;
47778;SDS011;33538;48.432;11.350;2022-12-07T05:31:43;10.27;;;5.25;;
47778;SDS011;33538;48.432;11.350;2022-12-07T05:34:10;11.95;;;6.03;;
47778;SDS011;33538;48.432;11.350;2022-12-07T05:36:37;12.70;;;5.53;;
47778;SDS011;33538;48.432;11.350;2022-12-07T05:39:04;11.13;;;5.50;;
47778;SDS011;33538;48.432;11.350;2022-12-07T05:41:31;10.93;;;5.72;;
47778;SDS011;33538;48.432;11.350;2022-12-07T05:43:59;12.10;;;5.50;;
47778;SDS011;33538;48.432;11.350;2022-12-07T05:46:26;13.25;;;5.97;;
47778;SDS011;33538;48.432;11.350;2022-12-07T05:48:53;12.30;;;5.43;;
47778;SDS011;33538;48.432;11.350;2022-12-07T05:51:20;11.20;;;5.05;;
47778;SDS011;33538;48.432;11.350;2022-12-07T05:53:47;12.25;;;5.65;;
47778;SDS011;33538;48.432;11.350;2022-12-07T05:56:14;9.85;;;5.35;;
47778;SDS011;33538;48.432;11.350;2022-12-07T05:58:40;16.67;;;5.82;;
47778;SDS011;33538;48.432;11.350;2022-12-07T06:01:09;11.40;;;5.80;;
47778;SDS011;33538;48.432;11.350;2022-12-07T06:03:35;12.40;;;5.65;;
47778;SDS011;33538;48.432;11.350;2022-12-07T06:06:02;8.77;;;4.90;;
47778;SDS011;33538;48.432;11.350;2022-12-07T06:08:29;10.90;;;4.72;;
47778;SDS011;33538;48.432;11.350;2022-12-07T06:10:56;8.23;;;4.85;;
47778;SDS011;33538;48.432;11.350;2022-12-07T06:13:23;9.30;;;4.47;;
47778;SDS011;33538;48.432;11.350;2022-12-07T06:15:49;8.98;;;4.88;;
47778;SDS011;33538;48.432;11.350;2022-12-07T06:18:17;9.07;;;4.63;;
47778;SDS011;33538;48.432;11.350;2022-12-07T06:20:44;10.00;;;5.85;;
47778;SDS011;33538;48.432;11.350;2022-12-07T06:23:12;14.23;;;5.85;;
47778;SDS011;33538;48.432;11.350;2022-12-07T06:25:38;7.88;;;4.53;;
47778;SDS011;33538;48.432;11.350;2022-12-07T06:28:05;10.35;;;4.63;;
47778;SDS011;33538;48.432;11.350;2022-12-07T06:30:32;9.07;;;5.13;;
47778;SDS011;33538;48.432;11.350;2022-12-07T06:32:58;9.38;;;4.65;;
47778;SDS011;33538;48.432;11.350;2022-12-07T06:35:27;11.35;;;5.22;;
47778;SDS011;33538;48.432;11.350;2022-12-07T06:37:53;7.30;;;4.07;;
47778;SDS011;33538;48.432;11.350;2022-12-07T06:40:20;7.63;;;4.45;;
47778;SDS011;33538;48.432;11.350;2022-12-07T06:42:47;8.20;;;4.43;;
47778;SDS011;33538;48.432;11.350;2022-12-07T06:45:15;9.63;;;4.70;;
47778;SDS011;33538;48.432;11.350;2022-12-07T06:47:42;9.63;;;5.13;;
47778;SDS011;33538;48.432;11.350;2022-12-07T06:50:11;10.23;;;4.40;;
47778;SDS011;33538;48.432;11.350;2022-12-07T06:52:40;11.07;;;4.90;;
47778;SDS011;33538;48.432;11.350;2022-12-07T06:55:07;8.25;;;4.65;;
47778;SDS011;33538;48.432;11.350;2022-12-07T06:57:33;7.93;;;4.32;;
47778;SDS011;33538;48.432;11.350;2022-12-07T07:00:00;8.45;;;4.25;;
47778;SDS011;33538;48.432;11.350;2022-12-07T07:02:28;9.27;;;4.60;;
47778;SDS011;33538;48.432;11.350;2022-12-07T07:04:55;10.52;;;4.65;;
47778;SDS011;33538;48.432;11.350;2022-12-07T07:07:22;7.90;;;4.40;;
47778;SDS011;33538;48.432;11.350;2022-12-07T07:09:50;12.25;;;5.18;;
47778;SDS011;33538;48.432;11.350;2022-12-07T07:12:17;10.70;;;4.85;;
47778;SDS011;33538;48.432;11.350;2022-12-07T07:14:44;10.50;;;4.82;;
47778;SDS011;33538;48.432;11.350;2022-12-07T07:17:10;11.77;;;5.13;;
47778;SDS011;33538;48.432;11.350;2022-12-07T07:19:37;10.35;;;4.60;;
47778;SDS011;33538;48.432;11.350;2022-12-07T07:22:04;9.55;;;4.30;;
47778;SDS011;33538;48.432;11.350;2022-12-07T07:24:31;10.38;;;4.55;;
47778;SDS011;33538;48.432;11.350;2022-12-07T07:26:59;9.52;;;5.25;;
47778;SDS011;33538;48.432;11.350;2022-12-07T07:29:26;11.95;;;5.38;;
47778;SDS011;33538;48.432;11.350;2022-12-07T07:31:52;9.30;;;5.07;;
47778;SDS011;33538;48.432;11.350;2022-12-07T07:34:19;11.57;;;5.53;;
47778;SDS011;33538;48.432;11.350;2022-12-07T07:36:46;11.35;;;5.55;;
47778;SDS011;33538;48.432;11.350;2022-12-07T07:39:13;13.80;;;5.85;;
47778;SDS011;33538;48.432;11.350;2022-12-07T07:41:40;14.02;;;4.82;;
47778;SDS011;33538;48.432;11.350;2022-12-07T07:44:08;9.27;;;5.10;;
47778;SDS011;33538;48.432;11.350;2022-12-07T07:46:35;12.45;;;5.97;;
47778;SDS011;33538;48.432;11.350;2022-12-07T07:49:02;10.93;;;4.90;;
47778;SDS011;33538;48.432;11.350;2022-12-07T07:51:29;13.15;;;5.80;;
47778;SDS011;33538;48.432;11.350;2022-12-07T07:53:56;11.88;;;5.22;;
47778;SDS011;33538;48.432;11.350;2022-12-07T07:56:23;10.25;;;5.82;;
47778;SDS011;33538;48.432;11.350;2022-12-07T07:58:51;12.85;;;6.25;;
47778;SDS011;33538;48.432;11.350;2022-12-07T08:01:19;12.77;;;5.57;;
47778;SDS011;33538;48.432;11.350;2022-12-07T08:03:46;10.57;;;6.32;;
47778;SDS011;33538;48.432;11.350;2022-12-07T08:06:13;11.93;;;5.40;;
47778;SDS011;33538;48.432;11.350;2022-12-07T08:08:40;11.55;;;5.45;;
47778;SDS011;33538;48.432;11.350;2022-12-07T08:11:07;11.20;;;5.60;;
47778;SDS011;33538;48.432;11.350;2022-12-07T08:13:34;10.48;;;4.85;;
47778;SDS011;33538;48.432;11.350;2022-12-07T08:16:03;11.77;;;4.78;;
47778;SDS011;33538;48.432;11.350;2022-12-07T08:18:31;13.68;;;5.30;;
47778;SDS011;33538;48.432;11.350;2022-12-07T08:21:01;13.90;;;6.57;;
47778;SDS011;33538;48.432;11.350;2022-12-07T08:23:28;13.93;;;5.72;;
47778;SDS011;33538;48.432;11.350;2022-12-07T08:26:05;10.93;;;5.38;;
47778;SDS011;33538;48.432;11.350;2022-12-07T08:28:32;15.70;;;5.85;;
47778;SDS011;33538;48.432;11.350;2022-12-07T08:30:59;14.88;;;6.10;;
47778;SDS011;33538;48.432;11.350;2022-12-07T08:33:26;12.80;;;5.70;;
47778;SDS011;33538;48.432;11.350;2022-12-07T08:36:00;12.52;;;5.57;;
47778;SDS011;33538;48.432;11.350;2022-12-07T08:40:57;11.98;;;5.30;;
47778;SDS011;33538;48.432;11.350;2022-12-07T08:43:25;9.02;;;4.97;;
47778;SDS011;33538;48.432;11.350;2022-12-07T08:45:53;12.40;;;5.30;;
47778;SDS011;33538;48.432;11.350;2022-12-07T08:48:25;10.93;;;5.50;;
47778;SDS011;33538;48.432;11.350;2022-12-07T08:50:52;15.40;;;6.75;;
47778;SDS011;33538;48.432;11.350;2022-12-07T08:53:20;11.77;;;5.30;;
47778;SDS011;33538;48.432;11.350;2022-12-07T08:55:48;15.50;;;6.28;;
47778;SDS011;33538;48.432;11.350;2022-12-07T08:58:15;17.70;;;7.13;;
47778;SDS011;33538;48.432;11.350;2022-12-07T09:00:42;16.83;;;6.55;;
47778;SDS011;33538;48.432;11.350;2022-12-07T09:03:08;13.10;;;5.70;;
47778;SDS011;33538;48.432;11.350;2022-12-07T09:05:35;14.80;;;6.15;;
47778;SDS011;33538;48.432;11.350;2022-12-07T09:08:02;11.90;;;5.90;;
47778;SDS011;33538;48.432;11.350;2022-12-07T09:10:30;13.75;;;6.20;;
47778;SDS011;33538;48.432;11.350;2022-12-07T09:12:57;12.57;;;5.45;;
47778;SDS011;33538;48.432;11.350;2022-12-07T09:15:24;11.38;;;5.15;;
47778;SDS011;33538;48.432;11.350;2022-12-07T09:17:51;21.27;;;7.03;;
47778;SDS011;33538;48.432;11.350;2022-12-07T09:20:18;13.50;;;6.25;;
47778;SDS011;33538;48.432;11.350;2022-12-07T09:22:52;12.82;;;6.55;;
47778;SDS011;33538;48.432;11.350;2022-12-07T09:25:19;12.32;;;5.72;;
47778;SDS011;33538;48.432;11.350;2022-12-07T09:27:47;14.10;;;6.15;;
47778;SDS011;33538;48.432;11.350;2022-12-07T09:30:14;14.35;;;5.93;;
47778;SDS011;33538;48.432;11.350;2022-12-07T09:32:41;15.52;;;5.43;;
47778;SDS011;33538;48.432;11.350;2022-12-07T09:35:08;11.30;;;5.63;;
47778;SDS011;33538;48.432;11.350;2022-12-07T09:37:34;12.52;;;5.60;;
47778;SDS011;33538;48.432;11.350;2022-12-07T09:40:02;16.17;;;6.35;;
47778;SDS011;33538;48.432;11.350;2022-12-07T09:42:33;11.02;;;5.82;;
47778;SDS011;33538;48.432;11.350;2022-12-07T09:45:04;12.85;;;5.55;;
47778;SDS011;33538;48.432;11.350;2022-12-07T09:47:32;11.20;;;5.70;;
47778;SDS011;33538;48.432;11.350;2022-12-07T09:50:00;16.77;;;6.50;;
47778;SDS011;33538;48.432;11.350;2022-12-07T09:52:31;13.05;;;5.95;;
47778;SDS011;33538;48.432;11.350;2022-12-07T09:55:08;14.27;;;6.35;;
47778;SDS011;33538;48.432;11.350;2022-12-07T09:57:38;12.02;;;5.57;;
47778;SDS011;33538;48.432;11.350;2022-12-07T10:00:10;13.40;;;6.55;;
47778;SDS011;33538;48.432;11.350;2022-12-07T10:02:40;13.32;;;6.47;;
47778;SDS011;33538;48.432;11.350;2022-12-07T10:05:10;13.48;;;6.45;;
47778;SDS011;33538;48.432;11.350;2022-12-07T10:07:47;12.43;;;6.32;;
47778;SDS011;33538;48.432;11.350;2022-12-07T10:10:15;16.67;;;6.90;;
47778;SDS011;33538;48.432;11.350;2022-12-07T10:12:52;13.50;;;6.78;;
47778;SDS011;33538;48.432;11.350;2022-12-07T10:15:23;17.08;;;6.90;;
47778;SDS011;33538;48.432;11.350;2022-12-07T10:17:51;11.93;;;5.55;;
47778;SDS011;33538;48.432;11.350;2022-12-07T10:20:20;12.90;;;6.35;;
47778;SDS011;33538;48.432;11.350;2022-12-07T10:22:55;15.75;;;6.40;;
47778;SDS011;33538;48.432;11.350;2022-12-07T10:25:26;16.63;;;6.30;;
47778;SDS011;33538;48.432;11.350;2022-12-07T10:27:57;12.45;;;5.57;;
47778;SDS011;33538;48.432;11.350;2022-12-07T10:30:47;13.88;;;6.45;;
47778;SDS011;33538;48.432;11.350;2022-12-07T10:33:29;11.95;;;5.65;;
47778;SDS011;33538;48.432;11.350;2022-12-07T10:35:57;11.15;;;5.40;;
47778;SDS011;33538;48.432;11.350;2022-12-07T10:38:26;10.88;;;5.57;;
47778;SDS011;33538;48.432;11.350;2022-12-07T10:41:02;14.32;;;5.00;;
47778;SDS011;33538;48.432;11.350;2022-12-07T10:43:30;10.50;;;4.50;;
47778;SDS011;33538;48.432;11.350;2022-12-07T10:46:04;8.52;;;4.30;;
47778;SDS011;33538;48.432;11.350;2022-12-07T10:48:42;8.40;;;4.25;;
47778;SDS011;33538;48.432;11.350;2022-12-07T10:51:19;9.38;;;4.45;;
47778;SDS011;33538;48.432;11.350;2022-12-07T10:53:52;10.60;;;4.63;;
47778;SDS011;33538;48.432;11.350;2022-12-07T10:56:39;10.80;;;4.95;;
47778;SDS011;33538;48.432;11.350;2022-12-07T11:02:14;9.48;;;4.72;;
47778;SDS011;33538;48.432;11.350;2022-12-07T11:05:06;8.45;;;4.15;;
47778;SDS011;33538;48.432;11.350;2022-12-07T11:07:44;9.43;;;4.65;;
47778;SDS011;33538;48.432;11.350;2022-12-07T11:10:22;12.57;;;4.75;;
47778;SDS011;33538;48.432;11.350;2022-12-07T11:12:58;10.27;;;3.95;;
47778;SDS011;33538;48.432;11.350;2022-12-07T11:16:01;9.23;;;4.07;;
47778;SDS011;33538;48.432;11.350;2022-12-07T11:18:55;10.73;;;4.68;;
47778;SDS011;33538;48.432;11.350;2022-12-07T11:21:38;12.43;;;4.43;;
47778;SDS011;33538;48.432;11.350;2022-12-07T11:24:10;10.10;;;5.03;;
47778;SDS011;33538;48.432;11.350;2022-12-07T11:26:44;12.70;;;4.65;;
47778;SDS011;33538;48.432;11.350;2022-12-07T11:29:29;10.15;;;4.65;;
47778;SDS011;33538;48.432;11.350;2022-12-07T11:32:13;8.05;;;3.88;;
47778;SDS011;33538;48.432;11.350;2022-12-07T11:34:49;10.05;;;4.47;;
47778;SDS011;33538;48.432;11.350;2022-12-07T11:37:29;8.73;;;4.30;;
47778;SDS011;33538;48.432;11.350;2022-12-07T11:40:05;9.43;;;3.70;;
47778;SDS011;33538;48.432;11.350;2022-12-07T11:42:42;8.00;;;4.05;;
47778;SDS011;33538;48.432;11.350;2022-12-07T11:47:46;9.68;;;4.00;;
47778;SDS011;33538;48.432;11.350;2022-12-07T11:50:21;9.57;;;4.30;;
47778;SDS011;33538;48.432;11.350;2022-12-07T11:52:53;8.57;;;4.22;;
47778;SDS011;33538;48.432;11.350;2022-12-07T11:55:24;8.82;;;4.28;;
47778;SDS011;33538;48.432;11.350;2022-12-07T11:57:58;11.38;;;4.97;;
47778;SDS011;33538;48.432;11.350;2022-12-07T12:00:30;5.85;;;3.35;;
47778;SDS011;33538;48.432;11.350;2022-12-07T12:02:58;7.70;;;3.65;;
47778;SDS011;33538;48.432;11.350;2022-12-07T12:05:31;14.18;;;4.78;;
47778;SDS011;33538;48.432;11.350;2022-12-07T12:08:00;8.05;;;3.70;;
47778;SDS011;33538;48.432;11.350;2022-12-07T12:10:59;6.20;;;3.28;;
47778;SDS011;33538;48.432;11.350;2022-12-07T12:13:42;9.27;;;4.13;;
47778;SDS011;33538;48.432;11.350;2022-12-07T12:16:46;12.90;;;4.18;;
47778;SDS011;33538;48.432;11.350;2022-12-07T12:19:31;10.00;;;4.05;;
47778;SDS011;33538;48.432;11.350;2022-12-07T12:22:03;8.68;;;3.65;;
47778;SDS011;33538;48.432;11.350;2022-12-07T12:24:36;9.85;;;4.07;;
47778;SDS011;33538;48.432;11.350;2022-12-07T12:27:06;6.85;;;3.50;;
47778;SDS011;33538;48.432;11.350;2022-12-07T12:29:36;8.98;;;3.88;;
47778;SDS011;33538;48.432;11.350;2022-12-07T12:32:06;6.65;;;3.30;;
47778;SDS011;33538;48.432;11.350;2022-12-07T12:34:39;6.40;;;3.60;;
47778;SDS011;33538;48.432;11.350;2022-12-07T12:37:40;7.57;;;4.03;;
47778;SDS011;33538;48.432;11.350;2022-12-07T12:43:27;9.50;;;3.95;;
47778;SDS011;33538;48.432;11.350;2022-12-07T12:46:36;9.50;;;3.35;;
47778;SDS011;33538;48.432;11.350;2022-12-07T12:58:36;7.68;;;3.33;;
47778;SDS011;33538;48.432;11.350;2022-12-07T13:04:14;8.75;;;3.88;;
47778;SDS011;33538;48.432;11.350;2022-12-07T13:06:47;6.30;;;3.63;;
47778;SDS011;33538;48.432;11.350;2022-12-07T13:09:20;7.13;;;2.90;;
47778;SDS011;33538;48.432;11.350;2022-12-07T13:11:49;5.32;;;2.65;;
47778;SDS011;33538;48.432;11.350;2022-12-07T13:17:08;9.57;;;4.07;;
47778;SDS011;33538;48.432;11.350;2022-12-07T13:22:34;5.90;;;3.40;;
47778;SDS011;33538;48.432;11.350;2022-12-07T13:25:19;9.27;;;3.72;;
47778;SDS011;33538;48.432;11.350;2022-12-07T13:28:07;8.02;;;3.10;;
47778;SDS011;33538;48.432;11.350;2022-12-07T13:30:42;9.95;;;3.90;;
47778;SDS011;33538;48.432;11.350;2022-12-07T13:35:41;5.68;;;2.67;;
47778;SDS011;33538;48.432;11.350;2022-12-07T13:38:15;14.80;;;3.20;;
47778;SDS011;33538;48.432;11.350;2022-12-07T13:41:11;7.82;;;3.78;;
47778;SDS011;33538;48.432;11.350;2022-12-07T13:43:44;7.32;;;2.75;;
47778;SDS011;33538;48.432;11.350;2022-12-07T13:46:13;6.63;;;3.58;;
47778;SDS011;33538;48.432;11.350;2022-12-07T13:48:41;6.93;;;3.65;;
47778;SDS011;33538;48.432;11.350;2022-12-07T13:51:16;6.13;;;2.70;;
47778;SDS011;33538;48.432;11.350;2022-12-07T13:53:48;4.88;;;2.83;;
47778;SDS011;33538;48.432;11.350;2022-12-07T13:56:17;7.45;;;2.83;;
47778;SDS011;33538;48.432;11.350;2022-12-07T13:58:43;7.32;;;3.42;;
47778;SDS011;33538;48.432;11.350;2022-12-07T14:01:10;6.85;;;3.40;;
47778;SDS011;33538;48.432;11.350;2022-12-07T14:03:37;5.85;;;3.35;;
47778;SDS011;33538;48.432;11.350;2022-12-07T14:06:06;5.65;;;2.28;;
47778;SDS011;33538;48.432;11.350;2022-12-07T14:08:40;7.65;;;3.10;;
47778;SDS011;33538;48.432;11.350;2022-12-07T14:11:07;6.72;;;3.22;;
47778;SDS011;33538;48.432;11.350;2022-12-07T14:13:42;4.80;;;2.42;;
47778;SDS011;33538;48.432;11.350;2022-12-07T14:16:22;5.32;;;2.65;;
47778;SDS011;33538;48.432;11.350;2022-12-07T14:18:51;6.55;;;2.97;;
47778;SDS011;33538;48.432;11.350;2022-12-07T14:21:19;7.07;;;2.97;;
47778;SDS011;33538;48.432;11.350;2022-12-07T14:23:54;4.55;;;2.42;;
47778;SDS011;33538;48.432;11.350;2022-12-07T14:26:41;9.32;;;3.22;;
47778;SDS011;33538;48.432;11.350;2022-12-07T14:29:27;6.38;;;3.00;;
47778;SDS011;33538;48.432;11.350;2022-12-07T14:31:58;6.80;;;2.88;;
47778;SDS011;33538;48.432;11.350;2022-12-07T14:34:54;5.50;;;2.38;;
47778;SDS011;33538;48.432;11.350;2022-12-07T14:37:23;6.63;;;2.85;;
47778;SDS011;33538;48.432;11.350;2022-12-07T14:39:49;5.28;;;2.53;;
47778;SDS011;33538;48.432;11.350;2022-12-07T14:42:16;6.28;;;2.72;;
47778;SDS011;33538;48.432;11.350;2022-12-07T14:44:45;6.03;;;3.00;;
47778;SDS011;33538;48.432;11.350;2022-12-07T14:47:12;6.75;;;2.50;;
47778;SDS011;33538;48.432;11.350;2022-12-07T14:49:59;5.38;;;2.78;;
47778;SDS011;33538;48.432;11.350;2022-12-07T14:52:31;5.57;;;2.75;;
47778;SDS011;33538;48.432;11.350;2022-12-07T14:55:20;6.03;;;3.03;;
47778;SDS011;33538;48.432;11.350;2022-12-07T14:57:50;5.10;;;2.55;;
47778;SDS011;33538;48.432;11.350;2022-12-07T15:00:19;7.38;;;2.92;;
47778;SDS011;33538;48.432;11.350;2022-12-07T15:02:47;6.78;;;2.78;;
47778;SDS011;33538;48.432;11.350;2022-12-07T15:05:14;5.95;;;2.85;;
47778;SDS011;33538;48.432;11.350;2022-12-07T15:07:43;5.07;;;2.92;;
47778;SDS011;33538;48.432;11.350;2022-12-07T15:10:13;7.60;;;2.65;;
47778;SDS011;33538;48.432;11.350;2022-12-07T15:12:49;7.60;;;3.05;;
47778;SDS011;33538;48.432;11.350;2022-12-07T15:15:16;6.38;;;2.75;;
47778;SDS011;33538;48.432;11.350;2022-12-07T15:17:45;6.28;;;3.17;;
47778;SDS011;33538;48.432;11.350;2022-12-07T15:20:12;6.82;;;2.78;;
47778;SDS011;33538;48.432;11.350;2022-12-07T15:22:40;4.78;;;2.65;;
47778;SDS011;33538;48.432;11.350;2022-12-07T15:25:08;7.28;;;3.08;;